This is the latest recevied weather packets stored in our database for station/object KD9ZDW. If no packets are shown the sender has not sent any weather packets the latest 10 day(s).
| Time | Temp. | Humidity | Pressure | Rain* | Wind** | Luminosity | Snow |
|---|---|---|---|---|---|---|---|
| 1777578446 | 13.89° C | 42% | 1017 hPa | 0 mm | - | 675 W/m² | - |
| 1777578142 | 13.33° C | 45% | 1017.3 hPa | 0 mm | - | 350 W/m² | - |
| 1777577838 | 13.33° C | 44% | 1017.3 hPa | 0 mm | - | 680 W/m² | - |
| 1777577534 | 12.78° C | 45% | 1017.3 hPa | 0 mm | - | 724 W/m² | - |
| 1777577231 | 13.89° C | 44% | 1017.3 hPa | 0 mm | - | 713 W/m² | - |
| 1777576927 | 13.33° C | 47% | 1017.3 hPa | 0 mm | - | 713 W/m² | - |
| 1777576622 | 13.89° C | 44% | 1017.4 hPa | 0 mm | - | 213 W/m² | - |
| 1777576318 | 11.67° C | 50% | 1017.7 hPa | 0 mm | - | 732 W/m² | - |
| 1777576014 | 12.78° C | 47% | 1017.7 hPa | 0 mm | - | 158 W/m² | - |
| 1777575711 | 13.33° C | 46% | 1017.8 hPa | 0 mm | - | 146 W/m² | - |
| 1777575406 | 13.33° C | 42% | 1018 hPa | 0 mm | - | 759 W/m² | - |
| 1777575102 | 13.33° C | 45% | 1017.7 hPa | 0 mm | - | 699 W/m² | - |
| 1777574798 | 13.33° C | 42% | 1017.7 hPa | 0 mm | - | 735 W/m² | - |
| 1777574496 | 13.33° C | 47% | 1017.8 hPa | 0 mm | - | 798 W/m² | - |
| 1777574193 | 12.78° C | 46% | 1017.8 hPa | 0 mm | - | 823 W/m² | - |
| 1777573888 | 12.22° C | 45% | 1017.7 hPa | 0 mm | - | 773 W/m² | - |
| 1777573588 | 13.33° C | 45% | 1017.9 hPa | 0 mm | - | 794 W/m² | - |
| 1777573285 | 13.33° C | 46% | 1017.8 hPa | 0 mm | - | 337 W/m² | - |
| 1777572981 | 12.22° C | 52% | 1017.8 hPa | 0 mm | - | 786 W/m² | - |
| 1777572677 | 11.67° C | 49% | 1017.8 hPa | 0 mm | - | 777 W/m² | - |
| 1777572371 | 11.67° C | 54% | 1017.8 hPa | 0 mm | - | 187 W/m² | - |
| 1777572068 | 12.22° C | 48% | 1018 hPa | 0 mm | - | 192 W/m² | - |
| 1777571768 | 12.22° C | 47% | 1018 hPa | 0 mm | - | 194 W/m² | - |
| 1777571465 | 12.78° C | 46% | 1018.1 hPa | 0 mm | - | 188 W/m² | - |
| 1777571161 | 13.33° C | 47% | 1018.3 hPa | 0 mm | - | 271 W/m² | - |
* Rain latest hour (hover to see other rain measurements)
** Current wind speed in m/s (hover to see current wind gust speed)